.
WxDataArchive / Data Records for 2012-07-10
2012-07-09 July 2012 2012-07-11

Data Records for Tuesday, 10 July 2012

Time	Temp	Chill	HIndex	Humid	Dewpt	 Wind 	HiWind	WindDir	Rain 	Barom 
-----	----	-----	------	-----	-----	------	------	-------	-----	----- 
00:00	74.0	74.0	74.0	57	57.8	0	1	315	0.00	29.975 
00:05	74.0	74.0	74.0	58	58.3	0	1	315	0.00	29.975 
00:10	73.9	73.9	73.9	58	58.2	0	1	315	0.00	29.975 
00:15	73.7	73.7	73.7	58	58.0	0	1	315	0.00	29.978 
00:20	73.7	73.7	73.7	58	58.0	0	0	---	0.00	29.978 
00:25	73.5	73.5	73.5	58	57.8	0	1	315	0.00	29.978 
00:30	73.5	73.5	73.5	58	57.8	0	1	315	0.00	29.981 
00:35	73.3	73.3	73.3	58	57.6	0	1	315	0.00	29.981 
00:40	73.3	73.3	73.3	58	57.6	0	1	315	0.00	29.981 
00:45	73.2	73.2	73.2	59	58.0	0	0	---	0.00	29.988 
00:50	72.8	72.8	72.8	60	58.1	0	0	---	0.00	29.988 
00:55	72.7	72.7	72.7	60	58.0	0	0	---	0.00	29.988 
01:00	72.3	72.3	72.3	61	58.1	0	0	---	0.00	29.986 
01:05	72.1	72.1	72.1	62	58.3	0	0	---	0.00	29.986 
01:10	71.8	71.8	71.8	62	58.1	0	1	315	0.00	29.986 
01:15	71.6	71.6	71.6	62	57.9	0	1	315	0.00	29.989 
01:20	71.5	71.5	71.5	63	58.2	0	0	---	0.00	29.989 
01:25	71.3	71.3	71.3	63	58.0	0	0	---	0.00	29.989 
01:30	71.1	71.1	71.1	63	57.9	0	1	315	0.00	29.988 
01:35	71.1	71.1	71.1	64	58.3	0	1	315	0.00	29.988 
01:40	70.9	70.9	70.9	64	58.1	0	1	315	0.00	29.988 
01:45	70.9	70.9	70.9	64	58.1	0	1	315	0.00	29.985 
01:50	70.8	70.8	70.8	64	58.0	0	1	315	0.00	29.985 
01:55	70.4	70.4	70.4	64	57.6	0	1	315	0.00	29.985 
02:00	70.3	70.3	70.3	64	57.5	0	1	315	0.00	29.984 
02:05	70.1	70.1	70.1	65	57.8	0	1	315	0.00	29.984 
02:10	69.9	69.9	69.9	65	57.6	0	1	315	0.00	29.984 
02:15	69.8	69.8	69.8	65	57.5	0	1	315	0.00	29.980 
02:20	69.6	69.6	69.6	65	57.3	0	1	315	0.00	29.980 
02:25	69.4	69.4	69.4	66	57.5	0	1	315	0.00	29.980 
02:30	69.3	69.3	69.3	66	57.4	0	1	315	0.00	29.980 
02:35	69.1	69.1	69.1	67	57.7	0	1	315	0.00	29.980 
02:40	68.9	68.9	68.9	67	57.5	0	0	---	0.00	29.980 
02:45	68.8	68.8	68.8	67	57.4	0	0	---	0.00	29.980 
02:50	68.4	68.4	68.4	68	57.4	0	0	---	0.00	29.980 
02:55	68.3	68.3	68.3	68	57.3	0	0	---	0.00	29.980 
03:00	68.1	68.1	68.1	68	57.1	0	1	315	0.00	29.982 
03:05	68.1	68.1	68.1	68	57.1	0	0	---	0.00	29.982 
03:10	67.9	67.9	67.9	68	56.9	0	0	---	0.00	29.982 
03:15	67.8	67.8	67.8	68	56.8	0	0	---	0.00	29.983 
03:20	67.6	67.6	67.6	69	57.1	0	0	---	0.00	29.983 
03:25	67.3	67.3	67.3	69	56.8	0	0	---	0.00	29.983 
03:30	67.1	67.1	67.1	70	57.0	0	0	---	0.00	29.988 
03:35	66.8	66.8	66.8	70	56.7	0	0	---	0.00	29.988 
03:40	66.6	66.6	66.6	71	56.9	0	0	---	0.00	29.988 
03:45	66.4	66.4	66.4	71	56.7	0	0	---	0.00	29.989 
03:50	66.4	66.4	66.4	72	57.1	0	1	315	0.00	29.989 
03:55	66.4	66.4	66.4	71	56.7	0	0	---	0.00	29.989 
04:00	66.4	66.4	66.4	72	57.1	0	1	315	0.00	29.991 
04:05	66.4	66.4	66.4	71	56.7	0	2	315	0.00	29.991 
04:10	66.4	66.4	66.4	72	57.1	0	1	315	0.00	29.991 
04:15	66.4	66.4	66.4	72	57.1	0	1	315	0.00	29.993 
04:20	66.3	66.3	66.3	72	57.0	0	0	---	0.00	29.993 
04:25	66.3	66.3	66.3	72	57.0	0	0	---	0.00	29.993 
04:30	66.1	66.1	66.1	73	57.2	0	0	---	0.00	29.993 
04:35	66.0	66.0	66.0	73	57.1	0	1	315	0.00	29.993 
04:40	65.8	65.8	65.8	73	56.9	0	0	---	0.00	29.993 
04:45	65.8	65.8	65.8	73	56.9	0	1	315	0.00	29.993 
04:50	65.6	65.6	65.6	73	56.7	0	1	315	0.00	29.993 
04:55	65.5	65.5	65.5	73	56.6	0	0	---	0.00	29.993 
05:00	65.5	65.5	65.5	74	57.0	0	0	---	0.00	29.994 
05:05	65.3	65.3	65.3	74	56.8	0	0	---	0.00	29.994 
05:10	65.2	65.2	65.2	74	56.7	0	0	---	0.00	29.994 
05:15	65.0	65.0	65.0	75	56.9	0	0	---	0.00	29.996 
05:20	64.8	64.8	64.8	75	56.7	0	0	---	0.00	29.996 
05:25	64.7	64.7	64.7	75	56.6	0	0	---	0.00	29.996 
05:30	64.5	64.5	64.5	76	56.8	0	0	---	0.00	29.998 
05:35	64.3	64.3	64.3	77	56.9	0	0	---	0.00	29.998 
05:40	64.2	64.2	64.2	77	56.8	0	0	---	0.00	29.998 
05:45	64.0	64.0	64.0	77	56.6	0	0	---	0.00	30.000 
05:50	63.9	63.9	63.9	78	56.9	0	0	---	0.00	30.000 
05:55	63.7	63.7	63.7	78	56.7	0	0	---	0.00	30.000 
06:00	63.5	63.5	63.5	78	56.5	0	0	---	0.00	30.006 
06:05	63.4	63.4	63.4	78	56.4	0	0	---	0.00	30.006 
06:10	63.2	63.2	63.2	79	56.6	0	0	---	0.00	30.006 
06:15	63.2	63.2	63.2	80	56.9	0	0	---	0.00	30.012 
06:20	63.1	63.1	63.1	80	56.8	0	0	---	0.00	30.012 
06:25	63.1	63.1	63.1	81	57.2	0	0	---	0.00	30.012 
06:30	62.9	62.9	62.9	81	57.0	0	0	---	0.00	30.019 
06:35	62.9	62.9	62.9	81	57.0	0	0	---	0.00	30.019 
06:40	62.9	62.9	62.9	81	57.0	0	1	315	0.00	30.019 
06:45	62.9	62.9	62.9	82	57.3	0	0	---	0.00	30.025 
06:50	62.9	62.9	62.9	82	57.3	0	0	---	0.00	30.025 
06:55	63.1	63.1	63.1	82	57.5	0	0	---	0.00	30.025 
07:00	63.2	63.2	63.2	82	57.6	0	0	---	0.00	30.027 
07:05	63.4	63.4	63.4	82	57.8	0	0	---	0.00	30.027 
07:10	63.5	63.5	63.5	82	57.9	0	0	---	0.00	30.027 
07:15	63.9	63.9	63.9	83	58.6	0	0	---	0.00	30.032 
07:20	64.3	64.3	64.3	82	58.7	0	1	315	0.00	30.032 
07:25	64.8	64.8	64.8	82	59.2	0	3	68	0.00	30.032 
07:30	65.5	65.5	65.5	81	59.5	0	3	68	0.00	30.036 
07:35	66.3	66.3	66.3	79	59.6	0	3	68	0.00	30.036 
07:40	66.9	66.9	66.9	78	59.8	0	1	68	0.00	30.036 
07:45	67.6	67.6	67.6	77	60.1	0	3	90	0.00	30.038 
07:50	68.4	68.4	68.4	76	60.5	1	3	90	0.00	30.038 
07:55	69.1	69.1	69.1	76	61.2	1	2	90	0.00	30.038 
08:00	69.6	69.6	69.6	75	61.3	1	4	90	0.00	30.039 
08:05	69.9	69.9	69.9	75	61.6	0	2	90	0.00	30.039 
08:10	70.3	70.3	70.3	74	61.6	2	6	90	0.00	30.039 
08:15	70.8	70.8	70.8	74	62.1	0	3	112	0.00	30.039 
08:20	70.9	70.9	70.9	74	62.2	0	2	112	0.00	30.039 
08:25	71.3	71.3	71.3	73	62.2	0	2	112	0.00	30.039 
08:30	72.1	72.1	72.1	72	62.6	1	4	112	0.00	30.042 
08:35	72.5	72.5	72.5	72	62.9	2	5	68	0.00	30.042 
08:40	72.7	72.7	72.7	72	63.1	2	5	90	0.00	30.042 
08:45	73.0	73.0	73.0	72	63.4	2	4	90	0.00	30.044 
08:50	73.2	73.2	73.2	72	63.6	3	7	90	0.00	30.044 
08:55	73.3	73.3	73.3	72	63.7	3	7	68	0.00	30.044 
09:00	73.5	73.5	73.5	72	63.9	3	6	90	0.00	30.047 
09:05	73.7	73.7	73.7	72	64.1	2	9	112	0.00	30.047 
09:10	74.4	74.4	74.4	69	63.5	1	5	112	0.00	30.047 
09:15	74.7	74.7	74.7	69	63.8	3	7	112	0.00	30.044 
09:20	74.6	74.6	74.6	69	63.7	3	7	90	0.00	30.044 
09:25	75.1	75.1	76.9	68	63.8	2	7	90	0.00	30.044 
09:30	75.6	75.6	77.4	67	63.9	1	4	90	0.00	30.051 
09:35	76.0	76.0	77.9	65	63.4	3	6	90	0.00	30.051 
09:40	76.3	76.3	78.1	65	63.6	2	5	90	0.00	30.051 
09:45	76.7	76.7	78.5	65	64.0	1	3	90	0.00	30.053 
09:50	77.2	77.2	79.0	64	64.1	2	5	68	0.00	30.053 
09:55	77.4	77.4	79.2	63	63.8	2	5	90	0.00	30.053 
10:00	77.7	77.7	79.4	61	63.2	1	4	112	0.00	30.054 
10:05	78.1	78.1	79.8	60	63.1	2	5	112	0.00	30.054 
10:10	78.1	78.1	79.8	60	63.1	2	5	112	0.00	30.054 
10:15	77.4	77.4	79.1	61	62.9	4	10	90	0.00	30.055 
10:20	77.6	77.6	79.4	62	63.5	2	4	90	0.00	30.055 
10:25	78.1	78.1	79.8	60	63.1	2	5	90	0.00	30.055 
10:30	78.5	78.5	80.2	61	63.9	3	6	112	0.00	30.054 
10:35	78.8	78.8	80.3	58	62.8	3	9	112	0.00	30.054 
10:40	78.8	78.8	80.4	59	63.2	3	7	90	0.00	30.054 
10:45	79.2	79.2	80.7	58	63.1	2	6	90	0.00	30.054 
10:50	79.2	79.2	80.6	56	62.1	3	7	112	0.00	30.054 
10:55	79.6	79.6	81.0	56	62.5	2	6	90	0.00	30.054 
11:00	79.8	79.8	81.3	57	63.2	3	7	90	0.00	30.053 
11:05	80.1	80.1	81.5	56	63.0	2	5	90	0.00	30.053 
11:10	80.3	80.3	81.6	55	62.6	3	7	112	0.00	30.053 
11:15	80.9	80.9	82.3	55	63.2	2	6	90	0.00	30.053 
11:20	81.4	81.4	82.3	51	61.5	3	7	112	0.00	30.053 
11:25	81.4	81.4	82.5	53	62.6	3	6	90	0.00	30.053 
11:30	81.1	81.1	82.2	53	62.3	4	12	90	0.00	30.054 
11:35	81.2	81.2	82.5	54	62.9	3	6	90	0.00	30.054 
11:40	82.0	82.0	83.1	52	62.6	1	4	90	0.00	30.054 
11:45	82.6	82.6	83.6	51	62.6	2	5	135	0.00	30.053 
11:50	83.0	83.0	83.7	49	61.8	3	9	90	0.00	30.053 
11:55	82.8	82.8	83.7	50	62.2	4	9	90	0.00	30.053 
12:00	82.8	82.8	83.7	50	62.2	3	7	90	0.00	30.053 
12:05	82.4	82.4	83.2	50	61.9	4	10	90	0.00	30.053 
12:10	82.6	82.6	83.1	48	60.9	1	6	112	0.00	30.053 
12:15	83.0	83.0	83.9	50	62.4	1	5	112	0.00	30.052 
12:20	83.2	83.2	83.6	47	60.8	3	7	90	0.00	30.052 
12:25	83.4	83.4	84.0	48	61.6	2	6	112	0.00	30.052 
12:30	83.4	83.4	83.7	46	60.4	4	12	112	0.00	30.051 
12:35	83.0	83.0	83.5	48	61.3	2	7	90	0.00	30.051 
12:40	83.4	83.4	84.0	48	61.6	3	7	90	0.00	30.051 
12:45	83.2	83.2	83.8	48	61.4	3	7	90	0.00	30.049 
12:50	83.8	83.8	83.7	44	59.5	3	6	90	0.00	30.049 
12:55	84.0	84.0	84.1	45	60.3	3	6	90	0.00	30.049 
13:00	84.1	84.1	83.9	43	59.2	3	7	90	0.00	30.045 
13:05	84.1	84.1	84.1	44	59.8	5	11	90	0.00	30.045 
13:10	84.1	84.1	83.6	41	57.8	3	9	68	0.00	30.045 
13:15	84.5	84.5	84.5	44	60.2	2	5	90	0.00	30.045 
13:20	84.0	84.0	83.8	43	59.1	1	6	90	0.00	30.045 
13:25	83.2	83.2	83.0	43	58.3	2	5	112	0.00	30.045 
13:30	83.4	83.4	82.6	39	55.8	1	4	112	0.00	30.042 
13:35	83.8	83.8	83.9	45	60.2	2	6	90	0.00	30.042 
13:40	84.0	84.0	83.6	42	58.4	3	7	45	0.00	30.042 
13:45	84.5	84.5	83.6	39	56.8	2	7	112	0.00	30.039 
13:50	85.3	85.3	84.5	39	57.5	1	4	90	0.00	30.039 
13:55	85.7	85.7	84.9	39	57.9	3	6	112	0.00	30.039 
14:00	85.9	85.9	84.7	37	56.6	2	7	112	0.00	30.036 
14:05	86.1	86.1	85.0	37	56.7	2	5	90	0.00	30.036 
14:10	87.0	87.0	85.2	33	54.4	2	7	90	0.00	30.036 
14:15	87.2	87.2	86.4	38	58.5	1	5	292	0.00	30.032 
14:20	86.1	86.1	85.4	39	58.2	3	7	90	0.00	30.032 
14:25	85.5	85.5	84.9	40	58.4	1	7	68	0.00	30.032 
14:30	86.1	86.1	84.6	35	55.2	2	5	90	0.00	30.028 
14:35	86.5	86.5	84.7	33	53.9	2	5	90	0.00	30.028 
14:40	86.7	86.7	84.9	33	54.1	2	6	90	0.00	30.028 
14:45	87.4	87.4	85.8	34	55.5	2	6	90	0.00	30.028 
14:50	87.2	87.2	85.2	32	53.7	2	5	90	0.00	30.028 
14:55	86.3	86.3	84.8	35	55.4	1	3	90	0.00	30.028 
15:00	86.1	86.1	84.4	34	54.4	1	4	90	0.00	30.025 
15:05	87.0	87.0	85.2	33	54.4	2	5	90	0.00	30.025 
15:10	86.7	86.7	84.9	33	54.1	3	6	112	0.00	30.025 
15:15	86.5	86.5	84.8	34	54.8	1	4	90	0.00	30.026 
15:20	86.1	86.1	84.6	35	55.2	2	6	112	0.00	30.026 
15:25	87.2	87.2	85.8	35	56.2	2	6	90	0.00	30.026 
15:30	87.6	87.6	85.7	32	54.1	2	6	135	0.00	30.024 
15:35	87.6	87.6	85.7	32	54.1	2	6	112	0.00	30.024 
15:40	87.8	87.8	86.5	35	56.7	2	6	90	0.00	30.024 
15:45	88.2	88.2	86.3	32	54.6	3	8	112	0.00	30.021 
15:50	87.6	87.6	85.7	32	54.1	3	7	90	0.00	30.021 
15:55	87.0	87.0	85.4	34	55.2	2	4	90	0.00	30.021 
16:00	87.2	87.2	85.4	33	54.6	1	7	90	0.00	30.022 
16:05	87.6	87.6	85.8	33	54.9	3	10	90	0.00	30.022 
16:10	87.4	87.4	85.6	33	54.7	1	4	90	0.00	30.022 
16:15	87.2	87.2	85.4	33	54.6	1	6	90	0.00	30.014 
16:20	87.6	87.6	85.3	30	52.3	2	5	90	0.00	30.014 
16:25	88.0	88.0	86.1	32	54.4	2	5	90	0.00	30.014 
16:30	88.8	88.8	86.1	27	50.5	1	4	90	0.00	30.009 
16:35	88.6	88.6	86.6	31	54.1	2	7	90	0.00	30.009 
16:40	88.4	88.4	86.1	30	53.0	3	7	90	0.00	30.009 
16:45	88.2	88.2	86.1	31	53.7	1	4	112	0.00	30.009 
16:50	88.0	88.0	85.7	30	52.6	1	6	90	0.00	30.009 
16:55	87.8	87.8	85.5	30	52.5	0	2	22	0.00	30.009 
17:00	88.0	88.0	85.6	29	51.7	0	2	22	0.00	30.008 
17:05	87.6	87.6	85.5	31	53.2	1	3	22	0.00	30.008 
17:10	87.2	87.2	85.2	32	53.7	2	7	90	0.00	30.008 
17:15	86.7	86.7	84.6	31	52.4	3	5	90	0.00	30.011 
17:20	87.0	87.0	84.7	30	51.8	2	4	90	0.00	30.011 
17:25	87.0	87.0	84.9	31	52.7	1	3	90	0.00	30.011 
17:30	87.2	87.2	85.1	31	52.8	2	5	90	0.00	30.011 
17:35	86.3	86.3	84.2	31	52.1	1	3	90	0.00	30.011 
17:40	85.9	85.9	84.1	33	53.4	2	5	90	0.00	30.011 
17:45	85.7	85.7	83.7	32	52.4	3	7	90	0.00	30.009 
17:50	85.1	85.1	83.3	33	52.7	2	5	68	0.00	30.009 
17:55	84.9	84.9	83.1	33	52.6	3	6	112	0.00	30.009 
18:00	85.1	85.1	83.3	33	52.7	1	5	112	0.00	30.010 
18:05	85.3	85.3	83.5	33	52.9	1	4	112	0.00	30.010 
18:10	85.5	85.5	83.7	33	53.1	1	3	158	0.00	30.010 
18:15	85.5	85.5	83.4	31	51.4	2	5	112	0.00	30.006 
18:20	85.7	85.7	83.7	32	52.4	2	3	112	0.00	30.006 
18:25	85.5	85.5	83.4	31	51.4	2	5	112	0.00	30.006 
18:30	85.3	85.3	83.4	32	52.1	3	7	112	0.00	30.007 
18:35	85.3	85.3	83.4	32	52.1	3	6	90	0.00	30.007 
18:40	85.1	85.1	83.5	34	53.5	2	7	90	0.00	30.007 
18:45	85.1	85.1	83.2	32	51.9	2	8	90	0.00	30.010 
18:50	84.7	84.7	83.0	33	52.4	3	7	90	0.00	30.010 
18:55	84.7	84.7	83.0	33	52.4	2	5	90	0.00	30.010 
19:00	84.3	84.3	82.6	33	52.0	4	9	90	0.00	30.011 
19:05	84.3	84.3	82.7	34	52.8	2	4	112	0.00	30.011 
19:10	84.0	84.0	82.5	34	52.6	4	10	112	0.00	30.011 
19:15	83.8	83.8	82.3	34	52.4	3	9	112	0.00	30.008 
19:20	83.8	83.8	82.3	34	52.4	2	5	90	0.00	30.008 
19:25	83.6	83.6	82.1	34	52.2	3	5	90	0.00	30.008 
19:30	83.6	83.6	82.1	34	52.2	2	4	90	0.00	30.008 
19:35	83.4	83.4	81.8	33	51.2	2	5	112	0.00	30.008 
19:40	83.2	83.2	81.8	34	51.9	2	5	68	0.00	30.008 
19:45	83.2	83.2	81.8	34	51.9	2	6	112	0.00	30.011 
19:50	83.0	83.0	81.6	34	51.7	2	5	68	0.00	30.011 
19:55	82.8	82.8	81.6	35	52.3	2	4	45	0.00	30.011 
20:00	82.6	82.6	81.3	34	51.4	3	6	90	0.00	30.014 
20:05	82.6	82.6	81.4	35	52.1	2	5	90	0.00	30.014 
20:10	82.4	82.4	81.2	35	52.0	2	4	90	0.00	30.014 
20:15	82.2	82.2	81.1	35	51.8	3	6	112	0.00	30.014 
20:20	81.8	81.8	80.8	35	51.4	3	6	68	0.00	30.014 
20:25	81.6	81.6	80.6	35	51.3	2	6	135	0.00	30.014 
20:30	81.2	81.2	80.3	35	50.9	2	7	112	0.00	30.021 
20:35	81.1	81.1	80.3	35	50.8	3	6	90	0.00	30.021 
20:40	80.7	80.7	80.0	35	50.5	3	6	68	0.00	30.021 
20:45	80.5	80.5	79.9	36	51.1	1	4	112	0.00	30.023 
20:50	80.1	80.1	79.8	37	51.5	2	5	68	0.00	30.023 
20:55	79.8	79.8	79.6	37	51.2	2	3	68	0.00	30.023 
21:00	79.6	79.6	79.5	38	51.7	2	5	68	0.00	30.024 
21:05	79.4	79.4	79.4	38	51.6	3	7	45	0.00	30.024 
21:10	79.0	79.0	79.2	38	51.2	1	3	68	0.00	30.024 
21:15	78.6	78.6	79.0	39	51.5	2	5	68	0.00	30.024 
21:20	78.5	78.5	78.9	39	51.5	2	4	68	0.00	30.024 
21:25	78.1	78.1	78.7	39	51.1	2	4	68	0.00	30.024 
21:30	77.9	77.9	78.6	39	50.9	2	4	68	0.00	30.029 
21:35	77.6	77.6	78.5	40	51.3	2	4	90	0.00	30.029 
21:40	77.2	77.2	78.3	39	50.3	2	6	90	0.00	30.029 
21:45	77.0	77.0	78.2	40	50.8	2	4	45	0.00	30.035 
21:50	76.8	76.8	78.1	40	50.6	2	4	45	0.00	30.035 
21:55	76.7	76.7	78.1	40	50.5	1	3	45	0.00	30.035 
22:00	76.5	76.5	78.1	41	51.0	1	3	45	0.00	30.040 
22:05	76.1	76.1	77.9	41	50.7	1	4	45	0.00	30.040 
22:10	76.0	76.0	77.9	42	51.2	2	5	45	0.00	30.040 
22:15	75.6	75.6	77.7	42	50.9	2	3	68	0.00	30.040 
22:20	75.4	75.4	77.7	43	51.3	2	5	68	0.00	30.040 
22:25	75.3	75.3	77.7	43	51.2	1	4	90	0.00	30.040 
22:30	75.1	75.1	77.6	44	51.7	1	3	90	0.00	30.054 
22:35	74.7	74.7	74.7	44	51.3	1	4	68	0.00	30.054 
22:40	74.6	74.6	74.6	44	51.2	1	3	68	0.00	30.054 
22:45	74.2	74.2	74.2	45	51.5	1	4	68	0.00	30.056 
22:50	74.0	74.0	74.0	46	51.9	1	3	68	0.00	30.056 
22:55	73.7	73.7	73.7	46	51.6	1	3	68	0.00	30.056 
23:00	73.5	73.5	73.5	47	52.0	1	3	68	0.00	30.060 
23:05	73.3	73.3	73.3	47	51.8	1	3	68	0.00	30.060 
23:10	73.2	73.2	73.2	47	51.7	2	5	68	0.00	30.060 
23:15	73.0	73.0	73.0	48	52.1	0	2	68	0.00	30.058 
23:20	72.7	72.7	72.7	48	51.9	0	2	68	0.00	30.058 
23:25	72.5	72.5	72.5	49	52.2	0	1	68	0.00	30.058 
23:30	72.1	72.1	72.1	49	51.9	0	1	68	0.00	30.063 
23:35	72.0	72.0	72.0	50	52.3	0	2	68	0.00	30.063 
23:40	71.8	71.8	71.8	50	52.1	0	3	68	0.00	30.063 
23:45	71.6	71.6	71.6	50	52.0	0	3	68	0.00	30.065 
23:50	71.5	71.5	71.5	50	51.9	0	2	68	0.00	30.065 
23:55	71.3	71.3	71.3	51	52.2	0	1	68	0.00	30.065 

CoCoRaHS
IN-AL-39
A2 Web Hosting
Creative Commons License
GoDaddy
search engine by freefind advanced

loaded 2018-11-22 06:33:17 • last modified 2010-11-18 10:43:29
Privacy PolicyDisclaimer
• wx.awcolley.com is powered by PmWiki v.2002016 •
• all content (unless otherwise noted) © 2018 A W Colley